メインページ
METAR-TAF:

METAR-TAF

空港 :

仁川国際空港, 大韓民国

緯度: 37-28N, 経度: 126-27E, 海抜: 7m

現時点の気象観測

当レポートは17分前の01:00(UTC)に作成
の風 7kt、南/南東から南西の間で変化する
気温 21°C
湿度 60%
気圧 1011 hPa
視程10km以上
高度3000ftの雲はほとんどない
高度8000ftの千切れ雲あり
高度18000ftの千切れ雲あり

METAR: RKSI 230100Z 19007KT 160V220 9999 FEW030 BKN080 BKN180 21/13 Q1011 NOSIG

時間: 10:17 (01:17 UTC)

予報

当レポートは2時間17分前の23:00(UTC)に作成
予報は23日の 00時(UTC)から 24日の 06時(UTC)まで有効
南西の風 10kt
視程: 7000m
高度1000ftの雲はほとんどない
高度2500ftの千切れ雲あり
高度8000ftの曇り
23日の 05時(UTC)から 23日の 06時(UTC)まで徐々に
視程: 4200m
小雨
23日の 08時(UTC)から 23日の 09時(UTC)まで徐々に
南/南東の風 8kt
視程: 2500m
23日の 14時(UTC)から 23日の 15時(UTC)まで徐々に
東/北東の風 8kt
高度3000ftの雲は散在している
高度12000ftの千切れ雲あり
23日の 22時(UTC)から 23日の 23時(UTC)まで徐々に
北西の風 8kt
視程: 4200m
24日の 01時(UTC)から 24日の 02時(UTC)まで徐々に
西の風 10kt
視程: 6000m

TAF: RKSI 222300Z 2300/2406 22010KT 7000 FEW010 BKN025 OVC080 TX23/2304Z TN15/2321Z TX25/2405Z BECMG 2305/2306 4200 -RA BECMG 2308/2309 16008KT 2500 BECMG 2314/2315 06008KT BR SCT030 BKN120 BECMG 2322/2323 32008KT 4200 BECMG 2401/2402 27010KT 6000 NSW NSC

4,000以上の空港の気象観測と天気予報(METAR報とTAF報)

利用可能な観測所は地図上に黄色い丸と赤い丸で示す。

丸の上にカーソルを重ねると観測所名を参照できる。

次にクリックすると気象観測と天気予報を参照できる。

マップの切り替え:黒色「×」印の緑ボタンをクリックして拡大、「-」印の緑ボタンをクリックして縮小、緑色の三角印をクリックして隣りの地図に切り替え


METAR-TAF: